sensor_id;sensor_type;location;lat;lon;timestamp;temperature;humidity
796;DHT22;381;48.770;9.188;2023-04-24T00:02:05;13.30;99.90
796;DHT22;381;48.770;9.188;2023-04-24T00:07:11;13.30;99.90
796;DHT22;381;48.770;9.188;2023-04-24T00:12:16;13.30;99.90
796;DHT22;381;48.770;9.188;2023-04-24T00:17:18;13.30;99.90
796;DHT22;381;48.770;9.188;2023-04-24T00:22:21;13.30;99.90
796;DHT22;381;48.770;9.188;2023-04-24T00:27:24;13.40;99.90
796;DHT22;381;48.770;9.188;2023-04-24T00:32:26;13.40;99.90
796;DHT22;381;48.770;9.188;2023-04-24T00:37:30;13.40;99.90
796;DHT22;381;48.770;9.188;2023-04-24T00:42:33;13.40;99.90
796;DHT22;381;48.770;9.188;2023-04-24T00:47:36;13.50;99.90
796;DHT22;381;48.770;9.188;2023-04-24T00:52:38;13.50;99.90
796;DHT22;381;48.770;9.188;2023-04-24T00:57:42;13.60;99.90
796;DHT22;381;48.770;9.188;2023-04-24T01:02:46;13.60;99.90
796;DHT22;381;48.770;9.188;2023-04-24T01:07:48;13.60;99.90
796;DHT22;381;48.770;9.188;2023-04-24T01:12:52;13.60;99.90
796;DHT22;381;48.770;9.188;2023-04-24T01:17:54;13.70;99.90
796;DHT22;381;48.770;9.188;2023-04-24T01:22:58;13.70;99.90
796;DHT22;381;48.770;9.188;2023-04-24T01:28:01;13.60;99.90
796;DHT22;381;48.770;9.188;2023-04-24T01:33:03;13.60;99.90
796;DHT22;381;48.770;9.188;2023-04-24T01:38:07;13.70;99.90
796;DHT22;381;48.770;9.188;2023-04-24T01:43:11;13.60;99.90
796;DHT22;381;48.770;9.188;2023-04-24T01:48:13;13.50;99.90
796;DHT22;381;48.770;9.188;2023-04-24T01:53:17;13.40;99.90
796;DHT22;381;48.770;9.188;2023-04-24T01:58:19;13.40;99.90
796;DHT22;381;48.770;9.188;2023-04-24T02:03:21;13.30;99.90
796;DHT22;381;48.770;9.188;2023-04-24T02:08:25;13.30;99.90
796;DHT22;381;48.770;9.188;2023-04-24T02:13:27;13.30;99.90
796;DHT22;381;48.770;9.188;2023-04-24T02:18:29;13.30;99.90
796;DHT22;381;48.770;9.188;2023-04-24T02:23:33;13.20;99.90
796;DHT22;381;48.770;9.188;2023-04-24T02:28:35;13.20;99.90
796;DHT22;381;48.770;9.188;2023-04-24T02:33:37;13.20;99.90
796;DHT22;381;48.770;9.188;2023-04-24T02:38:40;13.20;99.90
796;DHT22;381;48.770;9.188;2023-04-24T02:43:42;13.20;99.90
796;DHT22;381;48.770;9.188;2023-04-24T02:48:44;13.10;99.90
796;DHT22;381;48.770;9.188;2023-04-24T02:53:48;13.20;99.90
796;DHT22;381;48.770;9.188;2023-04-24T02:58:50;13.30;99.90
796;DHT22;381;48.770;9.188;2023-04-24T03:03:52;13.30;99.90
796;DHT22;381;48.770;9.188;2023-04-24T03:08:55;13.20;99.90
796;DHT22;381;48.770;9.188;2023-04-24T03:13:57;13.20;99.90
796;DHT22;381;48.770;9.188;2023-04-24T03:18:59;13.20;99.90
796;DHT22;381;48.770;9.188;2023-04-24T03:24:07;13.00;99.90
796;DHT22;381;48.770;9.188;2023-04-24T03:29:09;12.80;99.90
796;DHT22;381;48.770;9.188;2023-04-24T03:34:12;12.80;99.90
796;DHT22;381;48.770;9.188;2023-04-24T03:39:16;12.70;99.90
796;DHT22;381;48.770;9.188;2023-04-24T03:44:25;12.80;99.90
796;DHT22;381;48.770;9.188;2023-04-24T03:49:27;12.80;99.90
796;DHT22;381;48.770;9.188;2023-04-24T03:54:31;12.80;99.90
796;DHT22;381;48.770;9.188;2023-04-24T03:59:34;12.80;99.90
796;DHT22;381;48.770;9.188;2023-04-24T04:04:54;12.90;99.90
796;DHT22;381;48.770;9.188;2023-04-24T04:09:58;12.80;99.90
796;DHT22;381;48.770;9.188;2023-04-24T04:15:00;12.60;99.90
796;DHT22;381;48.770;9.188;2023-04-24T04:20:03;12.70;99.90
796;DHT22;381;48.770;9.188;2023-04-24T04:25:10;12.70;99.90
796;DHT22;381;48.770;9.188;2023-04-24T04:30:14;12.70;99.90
796;DHT22;381;48.770;9.188;2023-04-24T04:35:26;12.60;99.90
796;DHT22;381;48.770;9.188;2023-04-24T04:40:30;12.70;99.90
796;DHT22;381;48.770;9.188;2023-04-24T04:45:37;12.60;99.90
796;DHT22;381;48.770;9.188;2023-04-24T04:50:59;12.40;99.90
796;DHT22;381;48.770;9.188;2023-04-24T04:56:04;12.20;99.90
796;DHT22;381;48.770;9.188;2023-04-24T05:01:12;12.10;99.90
796;DHT22;381;48.770;9.188;2023-04-24T05:06:17;12.00;99.90
796;DHT22;381;48.770;9.188;2023-04-24T05:11:22;11.90;99.90
796;DHT22;381;48.770;9.188;2023-04-24T05:16:24;11.90;99.90
796;DHT22;381;48.770;9.188;2023-04-24T05:21:28;11.90;99.90
796;DHT22;381;48.770;9.188;2023-04-24T05:26:33;11.90;99.90
796;DHT22;381;48.770;9.188;2023-04-24T05:31:36;11.90;99.90
796;DHT22;381;48.770;9.188;2023-04-24T05:36:39;12.00;99.90
796;DHT22;381;48.770;9.188;2023-04-24T05:41:43;12.00;99.90
796;DHT22;381;48.770;9.188;2023-04-24T05:46:45;12.00;99.90
796;DHT22;381;48.770;9.188;2023-04-24T05:51:47;12.10;99.90
796;DHT22;381;48.770;9.188;2023-04-24T05:56:53;12.20;99.90
796;DHT22;381;48.770;9.188;2023-04-24T06:02:07;12.30;99.90
796;DHT22;381;48.770;9.188;2023-04-24T06:07:10;12.40;99.90
796;DHT22;381;48.770;9.188;2023-04-24T06:12:14;12.40;99.90
796;DHT22;381;48.770;9.188;2023-04-24T06:17:34;12.50;99.90
796;DHT22;381;48.770;9.188;2023-04-24T06:22:37;12.60;99.90
796;DHT22;381;48.770;9.188;2023-04-24T06:27:42;12.50;99.90
796;DHT22;381;48.770;9.188;2023-04-24T06:32:44;12.50;99.90
796;DHT22;381;48.770;9.188;2023-04-24T06:37:46;12.50;99.90
796;DHT22;381;48.770;9.188;2023-04-24T06:42:49;12.50;99.90
796;DHT22;381;48.770;9.188;2023-04-24T06:47:51;12.50;99.90
796;DHT22;381;48.770;9.188;2023-04-24T06:52:53;12.50;99.90
796;DHT22;381;48.770;9.188;2023-04-24T06:57:57;12.60;99.90
796;DHT22;381;48.770;9.188;2023-04-24T07:02:59;12.70;99.90
796;DHT22;381;48.770;9.188;2023-04-24T07:08:01;13.00;99.90
796;DHT22;381;48.770;9.188;2023-04-24T07:13:05;13.20;99.90
796;DHT22;381;48.770;9.188;2023-04-24T07:18:07;13.50;99.90
796;DHT22;381;48.770;9.188;2023-04-24T07:23:09;13.70;99.90
796;DHT22;381;48.770;9.188;2023-04-24T07:28:13;13.70;99.90
796;DHT22;381;48.770;9.188;2023-04-24T07:33:15;13.70;99.90
796;DHT22;381;48.770;9.188;2023-04-24T07:38:17;13.80;99.90
796;DHT22;381;48.770;9.188;2023-04-24T07:43:23;14.00;99.60
796;DHT22;381;48.770;9.188;2023-04-24T07:48:25;14.30;99.90
796;DHT22;381;48.770;9.188;2023-04-24T07:53:27;14.60;97.30
796;DHT22;381;48.770;9.188;2023-04-24T07:58:30;14.90;99.10
796;DHT22;381;48.770;9.188;2023-04-24T08:03:33;15.40;97.90
796;DHT22;381;48.770;9.188;2023-04-24T08:08:35;15.70;97.70
796;DHT22;381;48.770;9.188;2023-04-24T08:13:38;15.70;96.00
796;DHT22;381;48.770;9.188;2023-04-24T08:18:40;15.60;95.00
796;DHT22;381;48.770;9.188;2023-04-24T08:23:42;15.50;95.10
796;DHT22;381;48.770;9.188;2023-04-24T08:28:46;15.70;95.60
796;DHT22;381;48.770;9.188;2023-04-24T08:33:48;15.90;93.90
796;DHT22;381;48.770;9.188;2023-04-24T08:38:50;16.00;94.20
796;DHT22;381;48.770;9.188;2023-04-24T08:43:54;16.00;92.90
796;DHT22;381;48.770;9.188;2023-04-24T08:48:58;15.80;93.10
796;DHT22;381;48.770;9.188;2023-04-24T08:54:01;15.60;92.20
796;DHT22;381;48.770;9.188;2023-04-24T08:59:06;15.30;93.30
796;DHT22;381;48.770;9.188;2023-04-24T09:04:09;15.10;94.80
796;DHT22;381;48.770;9.188;2023-04-24T09:09:13;15.30;94.90
796;DHT22;381;48.770;9.188;2023-04-24T09:14:17;15.40;94.50
796;DHT22;381;48.770;9.188;2023-04-24T09:19:19;15.20;94.90
796;DHT22;381;48.770;9.188;2023-04-24T09:24:22;15.00;94.10
796;DHT22;381;48.770;9.188;2023-04-24T09:29:26;14.80;96.10
796;DHT22;381;48.770;9.188;2023-04-24T09:34:28;14.70;96.30
796;DHT22;381;48.770;9.188;2023-04-24T09:39:30;14.60;97.00
796;DHT22;381;48.770;9.188;2023-04-24T09:44:34;14.50;96.80
796;DHT22;381;48.770;9.188;2023-04-24T09:49:36;14.50;97.60
796;DHT22;381;48.770;9.188;2023-04-24T09:54:40;14.70;96.80
796;DHT22;381;48.770;9.188;2023-04-24T09:59:46;14.90;96.00
796;DHT22;381;48.770;9.188;2023-04-24T10:04:55;14.90;95.30
796;DHT22;381;48.770;9.188;2023-04-24T10:09:57;15.00;94.70
796;DHT22;381;48.770;9.188;2023-04-24T10:15:02;15.20;94.00
796;DHT22;381;48.770;9.188;2023-04-24T10:20:07;15.30;92.10
796;DHT22;381;48.770;9.188;2023-04-24T10:25:10;15.40;89.60
796;DHT22;381;48.770;9.188;2023-04-24T10:30:15;15.10;89.30
796;DHT22;381;48.770;9.188;2023-04-24T10:35:18;14.90;86.60
796;DHT22;381;48.770;9.188;2023-04-24T10:40:27;15.10;88.00
796;DHT22;381;48.770;9.188;2023-04-24T10:45:33;15.30;87.10
796;DHT22;381;48.770;9.188;2023-04-24T10:50:45;15.20;87.30
796;DHT22;381;48.770;9.188;2023-04-24T10:55:49;15.10;90.00
796;DHT22;381;48.770;9.188;2023-04-24T11:01:01;15.00;91.10
796;DHT22;381;48.770;9.188;2023-04-24T11:06:05;14.90;90.90
796;DHT22;381;48.770;9.188;2023-04-24T11:11:11;15.10;90.30
796;DHT22;381;48.770;9.188;2023-04-24T11:16:19;15.00;90.40
796;DHT22;381;48.770;9.188;2023-04-24T11:21:22;14.90;91.60
796;DHT22;381;48.770;9.188;2023-04-24T11:26:24;14.80;89.60
796;DHT22;381;48.770;9.188;2023-04-24T11:31:38;14.90;90.20
796;DHT22;381;48.770;9.188;2023-04-24T11:36:43;15.10;91.20
796;DHT22;381;48.770;9.188;2023-04-24T11:41:46;15.60;90.90
796;DHT22;381;48.770;9.188;2023-04-24T11:46:50;15.90;85.30
796;DHT22;381;48.770;9.188;2023-04-24T11:51:55;15.90;87.50
796;DHT22;381;48.770;9.188;2023-04-24T11:56:57;15.70;85.70
796;DHT22;381;48.770;9.188;2023-04-24T12:02:01;15.50;87.10
796;DHT22;381;48.770;9.188;2023-04-24T12:07:03;15.30;91.10
796;DHT22;381;48.770;9.188;2023-04-24T12:12:06;15.50;90.20
796;DHT22;381;48.770;9.188;2023-04-24T12:17:10;15.80;88.90
796;DHT22;381;48.770;9.188;2023-04-24T12:22:12;15.90;87.30
796;DHT22;381;48.770;9.188;2023-04-24T12:27:19;15.80;87.50
796;DHT22;381;48.770;9.188;2023-04-24T12:32:22;15.60;86.80
796;DHT22;381;48.770;9.188;2023-04-24T12:37:26;15.40;88.50
796;DHT22;381;48.770;9.188;2023-04-24T12:42:35;15.40;84.20
796;DHT22;381;48.770;9.188;2023-04-24T12:47:39;15.30;88.10
796;DHT22;381;48.770;9.188;2023-04-24T12:52:42;15.40;87.00
796;DHT22;381;48.770;9.188;2023-04-24T12:57:46;15.50;87.00
796;DHT22;381;48.770;9.188;2023-04-24T13:02:49;15.40;86.80
796;DHT22;381;48.770;9.188;2023-04-24T13:07:52;15.30;87.70
796;DHT22;381;48.770;9.188;2023-04-24T13:12:54;15.10;88.90
796;DHT22;381;48.770;9.188;2023-04-24T13:17:57;14.90;92.70
796;DHT22;381;48.770;9.188;2023-04-24T13:22:59;14.80;93.20
796;DHT22;381;48.770;9.188;2023-04-24T13:28:01;14.90;94.30
796;DHT22;381;48.770;9.188;2023-04-24T13:33:05;14.90;94.80
796;DHT22;381;48.770;9.188;2023-04-24T13:38:07;15.10;93.00
796;DHT22;381;48.770;9.188;2023-04-24T13:43:09;15.10;92.60
796;DHT22;381;48.770;9.188;2023-04-24T13:48:13;15.10;93.70
796;DHT22;381;48.770;9.188;2023-04-24T13:53:16;15.00;94.50
796;DHT22;381;48.770;9.188;2023-04-24T13:58:18;14.80;93.40
796;DHT22;381;48.770;9.188;2023-04-24T14:03:21;14.50;95.70
796;DHT22;381;48.770;9.188;2023-04-24T14:08:23;14.40;96.10
796;DHT22;381;48.770;9.188;2023-04-24T14:13:26;14.30;96.90
796;DHT22;381;48.770;9.188;2023-04-24T14:18:29;14.20;97.20
796;DHT22;381;48.770;9.188;2023-04-24T14:23:32;14.20;97.30
796;DHT22;381;48.770;9.188;2023-04-24T14:28:34;14.20;97.30
796;DHT22;381;48.770;9.188;2023-04-24T14:33:37;14.40;96.40
796;DHT22;381;48.770;9.188;2023-04-24T14:38:40;14.50;96.30
796;DHT22;381;48.770;9.188;2023-04-24T14:43:42;14.60;94.60
796;DHT22;381;48.770;9.188;2023-04-24T14:48:45;14.70;93.40
796;DHT22;381;48.770;9.188;2023-04-24T14:53:47;14.50;93.10
796;DHT22;381;48.770;9.188;2023-04-24T14:58:49;14.30;94.80
796;DHT22;381;48.770;9.188;2023-04-24T15:03:53;14.40;94.00
796;DHT22;381;48.770;9.188;2023-04-24T15:08:55;14.50;93.70
796;DHT22;381;48.770;9.188;2023-04-24T15:13:57;14.50;93.80
796;DHT22;381;48.770;9.188;2023-04-24T15:19:00;14.30;93.30
796;DHT22;381;48.770;9.188;2023-04-24T15:24:03;14.30;93.10
796;DHT22;381;48.770;9.188;2023-04-24T15:29:06;14.30;93.50
796;DHT22;381;48.770;9.188;2023-04-24T15:34:09;14.30;93.50
796;DHT22;381;48.770;9.188;2023-04-24T15:39:11;14.30;93.10
796;DHT22;381;48.770;9.188;2023-04-24T15:44:13;14.30;93.80
796;DHT22;381;48.770;9.188;2023-04-24T15:49:17;14.20;97.30
796;DHT22;381;48.770;9.188;2023-04-24T15:54:19;13.90;99.50
796;DHT22;381;48.770;9.188;2023-04-24T15:59:21;13.50;99.70
796;DHT22;381;48.770;9.188;2023-04-24T16:04:28;13.10;99.90
796;DHT22;381;48.770;9.188;2023-04-24T16:09:30;12.80;99.90
796;DHT22;381;48.770;9.188;2023-04-24T16:14:32;12.60;99.90
796;DHT22;381;48.770;9.188;2023-04-24T16:19:35;12.60;99.90
796;DHT22;381;48.770;9.188;2023-04-24T16:24:39;12.50;99.90
796;DHT22;381;48.770;9.188;2023-04-24T16:29:41;12.50;99.90
796;DHT22;381;48.770;9.188;2023-04-24T16:34:44;12.50;99.90
796;DHT22;381;48.770;9.188;2023-04-24T16:39:46;12.50;99.90
796;DHT22;381;48.770;9.188;2023-04-24T16:44:48;12.50;99.90
796;DHT22;381;48.770;9.188;2023-04-24T16:49:52;12.60;99.90
796;DHT22;381;48.770;9.188;2023-04-24T16:54:54;12.80;99.90
796;DHT22;381;48.770;9.188;2023-04-24T16:59:56;12.90;99.90
796;DHT22;381;48.770;9.188;2023-04-24T17:04:59;13.10;99.90
796;DHT22;381;48.770;9.188;2023-04-24T17:10:02;13.20;99.90
796;DHT22;381;48.770;9.188;2023-04-24T17:15:05;13.40;99.90
796;DHT22;381;48.770;9.188;2023-04-24T17:20:09;13.50;99.90
796;DHT22;381;48.770;9.188;2023-04-24T17:25:12;13.60;99.90
796;DHT22;381;48.770;9.188;2023-04-24T17:30:15;13.60;99.90
796;DHT22;381;48.770;9.188;2023-04-24T17:35:18;13.50;99.90
796;DHT22;381;48.770;9.188;2023-04-24T17:40:20;13.50;99.90
796;DHT22;381;48.770;9.188;2023-04-24T17:45:23;13.50;99.90
796;DHT22;381;48.770;9.188;2023-04-24T17:50:27;13.40;99.50
796;DHT22;381;48.770;9.188;2023-04-24T17:55:31;13.40;99.20
796;DHT22;381;48.770;9.188;2023-04-24T18:00:35;13.30;98.70
796;DHT22;381;48.770;9.188;2023-04-24T18:05:38;13.40;99.00
796;DHT22;381;48.770;9.188;2023-04-24T18:10:40;13.40;99.40
796;DHT22;381;48.770;9.188;2023-04-24T18:15:43;13.40;99.90
796;DHT22;381;48.770;9.188;2023-04-24T18:20:54;13.40;99.90
796;DHT22;381;48.770;9.188;2023-04-24T18:26:09;13.40;99.90
796;DHT22;381;48.770;9.188;2023-04-24T18:31:17;13.40;99.50
796;DHT22;381;48.770;9.188;2023-04-24T18:36:33;13.40;99.90
796;DHT22;381;48.770;9.188;2023-04-24T18:41:37;13.40;99.70
796;DHT22;381;48.770;9.188;2023-04-24T18:46:41;13.30;99.90
796;DHT22;381;48.770;9.188;2023-04-24T18:51:50;13.30;99.90
796;DHT22;381;48.770;9.188;2023-04-24T18:57:16;13.20;97.50
796;DHT22;381;48.770;9.188;2023-04-24T19:02:26;13.10;98.40
796;DHT22;381;48.770;9.188;2023-04-24T19:07:50;12.80;98.80
796;DHT22;381;48.770;9.188;2023-04-24T19:12:56;12.60;98.40
796;DHT22;381;48.770;9.188;2023-04-24T19:18:34;12.40;98.40
796;DHT22;381;48.770;9.188;2023-04-24T19:23:46;12.10;98.30
796;DHT22;381;48.770;9.188;2023-04-24T19:29:02;11.90;98.90
796;DHT22;381;48.770;9.188;2023-04-24T19:34:06;11.90;98.80
796;DHT22;381;48.770;9.188;2023-04-24T19:39:12;11.80;98.60
796;DHT22;381;48.770;9.188;2023-04-24T19:44:18;11.70;98.80
796;DHT22;381;48.770;9.188;2023-04-24T19:49:20;11.50;98.80
796;DHT22;381;48.770;9.188;2023-04-24T19:54:26;11.30;99.40
796;DHT22;381;48.770;9.188;2023-04-24T19:59:33;11.20;98.70
796;DHT22;381;48.770;9.188;2023-04-24T20:04:39;11.20;98.90
796;DHT22;381;48.770;9.188;2023-04-24T20:09:58;11.20;98.80
796;DHT22;381;48.770;9.188;2023-04-24T20:15:08;11.10;99.10
796;DHT22;381;48.770;9.188;2023-04-24T20:20:16;11.00;99.50
796;DHT22;381;48.770;9.188;2023-04-24T20:25:26;11.00;99.40
796;DHT22;381;48.770;9.188;2023-04-24T20:30:30;11.00;99.40
796;DHT22;381;48.770;9.188;2023-04-24T20:35:33;10.90;99.20
796;DHT22;381;48.770;9.188;2023-04-24T20:40:41;10.90;99.60
796;DHT22;381;48.770;9.188;2023-04-24T20:46:05;11.00;99.30
796;DHT22;381;48.770;9.188;2023-04-24T20:51:27;11.00;99.20
796;DHT22;381;48.770;9.188;2023-04-24T20:56:31;11.10;99.40
796;DHT22;381;48.770;9.188;2023-04-24T21:01:38;11.20;99.40
796;DHT22;381;48.770;9.188;2023-04-24T21:06:42;11.20;99.50
796;DHT22;381;48.770;9.188;2023-04-24T21:11:45;11.30;99.00
796;DHT22;381;48.770;9.188;2023-04-24T21:16:48;11.30;98.90
796;DHT22;381;48.770;9.188;2023-04-24T21:21:50;11.10;98.80
796;DHT22;381;48.770;9.188;2023-04-24T21:26:53;10.90;98.70
796;DHT22;381;48.770;9.188;2023-04-24T21:31:56;10.90;98.80
796;DHT22;381;48.770;9.188;2023-04-24T21:36:58;10.80;99.10
796;DHT22;381;48.770;9.188;2023-04-24T21:42:01;10.70;99.20
796;DHT22;381;48.770;9.188;2023-04-24T21:47:03;10.60;99.10
796;DHT22;381;48.770;9.188;2023-04-24T21:52:06;10.60;99.10
796;DHT22;381;48.770;9.188;2023-04-24T21:57:09;10.60;99.60
796;DHT22;381;48.770;9.188;2023-04-24T22:02:12;10.60;99.90
796;DHT22;381;48.770;9.188;2023-04-24T22:07:14;10.60;99.40
796;DHT22;381;48.770;9.188;2023-04-24T22:12:18;10.70;99.70
796;DHT22;381;48.770;9.188;2023-04-24T22:17:20;10.70;99.90
796;DHT22;381;48.770;9.188;2023-04-24T22:22:23;10.80;99.90
796;DHT22;381;48.770;9.188;2023-04-24T22:27:26;10.90;99.90
796;DHT22;381;48.770;9.188;2023-04-24T22:32:29;10.90;99.90
796;DHT22;381;48.770;9.188;2023-04-24T22:37:32;10.90;99.90
796;DHT22;381;48.770;9.188;2023-04-24T22:42:36;10.90;99.90
796;DHT22;381;48.770;9.188;2023-04-24T22:47:38;10.90;99.70
796;DHT22;381;48.770;9.188;2023-04-24T22:52:40;10.90;99.90
796;DHT22;381;48.770;9.188;2023-04-24T22:57:46;10.90;99.90
796;DHT22;381;48.770;9.188;2023-04-24T23:02:48;10.90;99.90
796;DHT22;381;48.770;9.188;2023-04-24T23:07:50;10.90;99.90
796;DHT22;381;48.770;9.188;2023-04-24T23:12:54;11.10;99.90
796;DHT22;381;48.770;9.188;2023-04-24T23:17:56;11.20;99.90
796;DHT22;381;48.770;9.188;2023-04-24T23:22:59;11.10;99.90
796;DHT22;381;48.770;9.188;2023-04-24T23:28:03;11.10;99.90
796;DHT22;381;48.770;9.188;2023-04-24T23:33:05;11.10;99.90
796;DHT22;381;48.770;9.188;2023-04-24T23:38:07;11.20;99.90
796;DHT22;381;48.770;9.188;2023-04-24T23:43:10;11.30;99.50
796;DHT22;381;48.770;9.188;2023-04-24T23:48:13;11.40;99.90
796;DHT22;381;48.770;9.188;2023-04-24T23:53:15;11.50;99.90
796;DHT22;381;48.770;9.188;2023-04-24T23:58:18;11.50;99.90
